Ribeiro Goncalves, Brazil
Current Conditions -  °F | °C
As of 11:00 AM on Sunday 21 Dec 2014 (Local Time) from SBIZ Reporting Station
Scattered Clouds Scattered Clouds  
Wind Chill: 90°   Ceiling: Unl
Heat Index: 100°   Visibility: 6mi
Dew Point: 75°   Wind: 8mph
Humidity: 62%   Direction: 120°ESE
Pressure: 29.91"   Gusts: NA
Location:  7.56°S, 45.24°W
Report Text: SBIZ 211400Z 12007KT 9999 SCT015 32/24 Q1013
Loading
Personal Weather Stations






























Interactive Weather Map New forecast layout! Learn more

10-Day Weather Forecast

Advertisements
Track Severe Weather on mobile